createdAt,value
2023-05-12T00:02:29.208Z,17.13
2023-05-12T00:07:32.536Z,17.37
2023-05-12T00:12:36.846Z,17.60
2023-05-12T00:17:39.741Z,17.73
2023-05-12T00:22:42.631Z,17.51
2023-05-12T00:27:46.752Z,17.65
2023-05-12T00:32:49.710Z,17.89
2023-05-12T00:37:52.612Z,17.83
2023-05-12T00:42:56.866Z,17.86
2023-05-12T00:47:59.881Z,17.93
2023-05-12T00:53:03.101Z,18.22
2023-05-12T00:58:07.547Z,18.30
2023-05-12T01:03:11.739Z,18.34
2023-05-12T01:08:15.047Z,18.28
2023-05-12T01:13:19.517Z,18.24
2023-05-12T01:18:25.325Z,17.64
2023-05-12T01:23:34.914Z,18.06
2023-05-12T01:28:41.160Z,18.17
2023-05-12T01:33:44.744Z,18.19
2023-05-12T01:38:47.849Z,18.13
2023-05-12T01:43:52.116Z,17.91
2023-05-12T01:48:54.943Z,17.76
2023-05-12T01:53:57.886Z,17.77
2023-05-12T01:59:04.653Z,17.85
2023-05-12T02:04:09.184Z,17.88
2023-05-12T02:09:13.343Z,17.85
2023-05-12T02:14:17.548Z,17.68
2023-05-12T02:19:20.770Z,18.19
2023-05-12T02:24:23.741Z,18.14
2023-05-12T02:29:27.911Z,17.86
2023-05-12T02:34:30.937Z,17.96
2023-05-12T02:39:34.226Z,17.99
2023-05-12T02:44:38.561Z,18.22
2023-05-12T02:49:41.662Z,17.91
2023-05-12T02:54:44.678Z,17.89
2023-05-12T02:59:48.905Z,18.31
2023-05-12T03:04:51.730Z,18.33
2023-05-12T03:09:54.605Z,18.05
2023-05-12T03:15:00.425Z,18.21
2023-05-12T03:20:03.503Z,18.32
2023-05-12T03:25:08.187Z,18.45
2023-05-12T03:30:13.717Z,18.39
2023-05-12T03:35:16.669Z,18.39
2023-05-12T03:40:19.914Z,18.34
2023-05-12T03:45:24.788Z,18.36
2023-05-12T03:50:27.579Z,18.44
2023-05-12T03:55:30.475Z,18.46
2023-05-12T04:00:35.237Z,18.47
2023-05-12T04:05:39.523Z,18.03
2023-05-12T04:10:43.323Z,18.07
2023-05-12T04:15:47.459Z,18.34
2023-05-12T04:20:50.234Z,18.32
2023-05-12T04:25:53.623Z,18.23
2023-05-12T04:30:57.859Z,18.31
2023-05-12T04:36:01.417Z,18.50
2023-05-12T04:41:04.557Z,18.35
2023-05-12T04:46:09.077Z,18.44
2023-05-12T04:51:12.101Z,18.15
2023-05-12T04:56:15.025Z,18.32
2023-05-12T05:01:20.163Z,18.83
2023-05-12T05:06:23.216Z,18.77
2023-05-12T05:11:26.896Z,18.87
2023-05-12T05:16:31.330Z,19.04
2023-05-12T05:21:34.546Z,19.47
2023-05-12T05:26:37.561Z,19.32
2023-05-12T05:31:41.756Z,19.13
2023-05-12T05:36:44.598Z,19.20
2023-05-12T05:41:47.562Z,19.45
2023-05-12T05:46:52.147Z,19.52
2023-05-12T05:51:56.192Z,19.78
2023-05-12T05:57:02.074Z,19.80
2023-05-12T06:02:07.835Z,20.06
2023-05-12T06:07:10.753Z,20.01
2023-05-12T06:12:13.617Z,20.24
2023-05-12T06:17:18.081Z,20.05
2023-05-12T06:22:21.270Z,20.35
2023-05-12T06:27:24.341Z,20.34
2023-05-12T06:32:28.511Z,20.75
2023-05-12T06:37:31.334Z,20.52
2023-05-12T06:42:34.142Z,21.36
2023-05-12T06:47:45.656Z,21.24
2023-05-12T06:52:48.504Z,21.12
2023-05-12T06:57:55.715Z,21.34
2023-05-12T07:03:00.028Z,21.43
2023-05-12T07:08:02.851Z,21.16
2023-05-12T07:13:05.726Z,21.58
2023-05-12T07:18:10.076Z,21.39
2023-05-12T07:23:13.052Z,21.71
2023-05-12T07:28:16.001Z,22.59
2023-05-12T07:33:20.192Z,23.16
2023-05-12T07:38:23.086Z,24.16
2023-05-12T07:43:25.973Z,23.88
2023-05-12T07:48:30.607Z,24.75
2023-05-12T07:53:33.493Z,23.62
2023-05-12T07:58:36.524Z,23.63
2023-05-12T08:03:40.722Z,24.51
2023-05-12T08:08:43.727Z,24.30
2023-05-12T08:13:46.594Z,24.53
2023-05-12T08:18:51.047Z,24.25
2023-05-12T08:23:53.844Z,25.15
2023-05-12T08:28:56.652Z,25.53
2023-05-12T08:34:09.642Z,24.75
2023-05-12T08:39:12.955Z,24.21
2023-05-12T08:44:17.031Z,24.64
2023-05-12T08:49:26.168Z,25.09
2023-05-12T08:54:29.811Z,24.52
2023-05-12T08:59:35.655Z,24.45
2023-05-12T09:04:39.815Z,23.72
2023-05-12T09:09:45.995Z,24.09
2023-05-12T09:14:59.631Z,23.95
2023-05-12T09:20:04.253Z,24.19
2023-05-12T09:25:17.255Z,24.47
2023-05-12T09:30:30.654Z,24.55
2023-05-12T09:35:39.270Z,24.06
2023-05-12T09:40:43.064Z,24.53
2023-05-12T09:45:50.081Z,24.12
2023-05-12T09:50:54.291Z,23.83
2023-05-12T09:55:57.058Z,23.92
2023-05-12T10:01:20.924Z,24.44
2023-05-12T10:06:28.222Z,24.79
2023-05-12T10:11:31.439Z,24.85
2023-05-12T10:16:34.772Z,24.84
2023-05-12T10:21:39.646Z,24.99
2023-05-12T10:26:43.737Z,25.35
2023-05-12T10:31:47.811Z,25.19
2023-05-12T10:36:54.103Z,25.06
2023-05-12T10:42:02.364Z,25.96
2023-05-12T10:47:14.702Z,25.92
2023-05-12T10:52:21.915Z,24.91
2023-05-12T10:57:24.878Z,24.65
2023-05-12T11:02:32.051Z,24.91
2023-05-12T11:07:37.528Z,25.27
2023-05-12T11:12:40.780Z,24.96
2023-05-12T11:17:43.607Z,25.36
2023-05-12T11:22:48.020Z,24.30
2023-05-12T11:27:51.413Z,25.24
2023-05-12T11:33:04.374Z,25.83
2023-05-12T11:38:17.815Z,25.41
2023-05-12T11:43:22.235Z,25.87
2023-05-12T11:48:35.480Z,25.65
2023-05-12T11:53:42.547Z,25.91
2023-05-12T11:58:53.635Z,26.13
2023-05-12T12:03:57.067Z,26.40
2023-05-12T12:09:02.059Z,25.54
2023-05-12T12:14:05.040Z,25.87
2023-05-12T12:19:08.780Z,25.41
2023-05-12T12:24:12.950Z,25.20
2023-05-12T12:29:15.707Z,25.20
2023-05-12T12:34:19.179Z,24.93
2023-05-12T12:39:23.327Z,24.98
2023-05-12T12:44:26.547Z,24.52
2023-05-12T12:49:29.489Z,24.48
2023-05-12T12:54:33.710Z,24.71
2023-05-12T12:59:36.469Z,24.52
2023-05-12T13:04:39.330Z,24.63
2023-05-12T13:09:43.395Z,24.82
2023-05-12T13:14:46.199Z,24.25
2023-05-12T13:19:48.959Z,24.66
2023-05-12T13:24:53.037Z,24.83
2023-05-12T13:29:55.819Z,25.05
2023-05-12T13:34:59.109Z,24.77
2023-05-12T13:40:03.382Z,24.73
2023-05-12T13:45:07.316Z,24.67
2023-05-12T13:50:10.487Z,24.94
2023-05-12T13:55:20.534Z,24.45
2023-05-12T14:00:27.009Z,24.63
2023-05-12T14:05:29.820Z,24.58
2023-05-12T14:10:35.375Z,24.67
2023-05-12T14:15:48.852Z,24.65
2023-05-12T14:20:52.678Z,25.21
2023-05-12T14:25:56.949Z,24.56
2023-05-12T14:30:59.772Z,24.92
2023-05-12T14:36:07.496Z,24.58
2023-05-12T14:41:12.361Z,24.80
2023-05-12T14:46:15.310Z,24.39
2023-05-12T14:51:18.220Z,24.67
2023-05-12T14:56:22.325Z,24.50
2023-05-12T15:01:25.092Z,24.46
2023-05-12T15:06:27.838Z,24.57
2023-05-12T15:11:31.925Z,24.58
2023-05-12T15:16:34.673Z,24.52
2023-05-12T15:21:37.443Z,24.43
2023-05-12T15:26:41.751Z,24.37
2023-05-12T15:31:45.128Z,24.23
2023-05-12T15:36:48.833Z,24.06
2023-05-12T15:41:53.210Z,24.10
2023-05-12T15:46:56.469Z,24.09
2023-05-12T15:51:59.370Z,24.02
2023-05-12T15:57:04.000Z,24.24
2023-05-12T16:02:08.280Z,24.45
2023-05-12T16:07:11.230Z,24.02
2023-05-12T16:12:15.540Z,24.19
2023-05-12T16:17:18.396Z,24.12
2023-05-12T16:22:21.213Z,24.11
2023-05-12T16:27:25.556Z,23.69
2023-05-12T16:32:28.519Z,24.15
2023-05-12T16:37:32.371Z,23.80
2023-05-12T16:42:36.577Z,23.68
2023-05-12T16:47:39.367Z,23.52
2023-05-12T16:52:42.204Z,23.21
2023-05-12T16:57:46.271Z,23.16
2023-05-12T17:02:49.153Z,22.91
2023-05-12T17:07:52.358Z,22.93
2023-05-12T17:12:56.566Z,22.71
2023-05-12T17:17:59.514Z,23.44
2023-05-12T17:23:02.601Z,23.00
2023-05-12T17:28:07.049Z,22.69
2023-05-12T17:33:09.873Z,22.63
2023-05-12T17:38:12.604Z,22.38
2023-05-12T17:43:16.686Z,22.63
2023-05-12T17:48:19.665Z,22.59
2023-05-12T17:53:22.416Z,22.15
2023-05-12T17:58:26.682Z,21.93
2023-05-12T18:03:29.965Z,22.05
2023-05-12T18:08:32.809Z,21.87
2023-05-12T18:13:37.075Z,21.68
2023-05-12T18:18:39.912Z,21.72
2023-05-12T18:23:42.771Z,21.44
2023-05-12T18:28:46.955Z,21.32
2023-05-12T18:33:50.894Z,21.45
2023-05-12T18:38:53.915Z,21.38
2023-05-12T18:43:58.067Z,20.98
2023-05-12T18:49:00.944Z,21.06
2023-05-12T18:54:04.308Z,20.83
2023-05-12T18:59:08.410Z,20.49
2023-05-12T19:04:11.811Z,20.56
2023-05-12T19:09:14.703Z,20.82
2023-05-12T19:14:19.786Z,20.25
2023-05-12T19:19:22.757Z,20.25
2023-05-12T19:24:26.840Z,20.06
2023-05-12T19:30:05.561Z,20.16
2023-05-12T19:35:12.425Z,19.65
2023-05-12T19:40:15.350Z,19.60
2023-05-12T19:45:19.877Z,19.49
2023-05-12T19:50:22.849Z,19.27
2023-05-12T19:55:25.797Z,19.03
2023-05-12T20:00:30.025Z,19.20
2023-05-12T20:05:32.878Z,18.91
2023-05-12T20:10:35.728Z,18.98
2023-05-12T20:15:39.968Z,19.09
2023-05-12T20:20:43.244Z,19.04
2023-05-12T20:25:46.666Z,19.06
2023-05-12T20:30:51.713Z,18.68
2023-05-12T20:35:54.667Z,18.88
2023-05-12T20:40:57.506Z,18.70
2023-05-12T20:46:04.652Z,18.78
2023-05-12T20:51:13.899Z,18.87
2023-05-12T20:56:16.857Z,18.53
2023-05-12T21:01:21.050Z,18.63
2023-05-12T21:06:23.930Z,18.87
2023-05-12T21:11:26.909Z,18.70
2023-05-12T21:16:31.022Z,18.67
2023-05-12T21:21:33.853Z,18.60
2023-05-12T21:26:36.627Z,18.34
2023-05-12T21:31:40.687Z,18.46
2023-05-12T21:36:43.564Z,18.36
2023-05-12T21:41:46.315Z,18.28
2023-05-12T21:46:50.500Z,18.01
2023-05-12T21:51:55.820Z,18.16
2023-05-12T21:56:58.755Z,18.23
2023-05-12T22:02:02.869Z,18.25
2023-05-12T22:07:06.041Z,18.17
2023-05-12T22:12:13.501Z,17.99
2023-05-12T22:17:17.683Z,18.28
2023-05-12T22:22:20.420Z,18.23
2023-05-12T22:27:23.211Z,18.03
2023-05-12T22:32:27.471Z,17.91
2023-05-12T22:37:30.378Z,17.81
2023-05-12T22:42:33.149Z,18.02
2023-05-12T22:47:37.476Z,17.92
2023-05-12T22:52:40.332Z,17.88
2023-05-12T22:57:45.321Z,17.63
2023-05-12T23:02:49.478Z,17.60
2023-05-12T23:07:52.208Z,17.30
2023-05-12T23:12:55.141Z,17.29
2023-05-12T23:17:59.281Z,16.97
2023-05-12T23:23:02.159Z,17.03
2023-05-12T23:28:05.080Z,16.76
2023-05-12T23:33:09.244Z,16.62
2023-05-12T23:38:12.042Z,16.43
2023-05-12T23:43:15.154Z,16.34
2023-05-12T23:48:19.347Z,16.34
2023-05-12T23:53:22.120Z,16.40
2023-05-12T23:58:24.880Z,16.35
